Gure Amuitz — EASO — position and weather

sailwx.info

Track history (hours):
 
Tides and Currents Weather Stations Pressure Air Temp Water Temp Dewpoint Dewpoint Depression Visibility Wind Speed Wind Dir Waves Ship Positions

Gure Amuitz

Last reported at 2017-Nov-17 12:48 UTC. Time now 2017-Dec-14 09:48 UTC.
Position N 43°23' W 001°47'.
Warning: this ship's position is 26 days out of date.

Length 28 m.

Type: Fishing. MMSI: 224010590.

Date/timePositionNaut miles runAvg speedWind from/ knotsBaromVisibWave heightAir tempDewpointWater temp
2017-Nov-17 12:48N 43°23' W 001°47'0 0.0
2017-Nov-17 12:30N 43°23' W 001°47'0 0.3
2017-Nov-17 12:00N 43°23' W 001°48'0 0.0
2017-Nov-17 11:30N 43°23' W 001°48'0 0.0
2017-Nov-17 11:00N 43°23' W 001°48'0 0.0
2017-Nov-17 10:30N 43°23' W 001°48'0 0.0
2017-Nov-17 10:00N 43°23' W 001°48'0 0.0
2017-Nov-17 09:30N 43°23' W 001°48'0 0.0
2017-Nov-17 09:00N 43°23' W 001°48'0 0.0
2017-Nov-17 08:30N 43°23' W 001°48'0 0.0
2017-Nov-17 08:00N 43°23' W 001°48'0 0.0
2017-Nov-17 07:30N 43°23' W 001°48'0 0.0
2017-Nov-16 12:06N 43°23' W 001°48'0 0.0
2017-Nov-16 12:00N 43°23' W 001°48'0 0.0
2017-Nov-16 11:30N 43°23' W 001°48'0 0.0
2017-Nov-16 11:00N 43°23' W 001°48'0 0.0
2017-Nov-16 10:30N 43°23' W 001°48'0 0.0
2017-Nov-16 10:00N 43°23' W 001°48'0 0.0
2017-Nov-16 09:30N 43°23' W 001°48'0 0.0
2017-Nov-16 09:00N 43°23' W 001°48'0 0.0
2017-Nov-16 08:30N 43°23' W 001°48'0 0.0
2017-Nov-16 08:00N 43°23' W 001°48'0 0.0
2017-Nov-16 07:30N 43°23' W 001°48'0 0.0
2017-Nov-15 11:37N 43°23' W 001°48'0 0.0
2017-Nov-15 11:30N 43°23' W 001°48'0 0.0
2017-Nov-15 11:00N 43°23' W 001°48'0 0.0
2017-Nov-15 10:30N 43°23' W 001°48'2 3.5
2017-Nov-15 10:00N 43°25' W 001°46'510.3
2017-Nov-15 09:30N 43°30' W 001°46'510.3
2017-Nov-15 09:00N 43°35' W 001°44'510.1
2017-Nov-15 08:30N 43°40' W 001°42'510.0
2017-Nov-15 08:00N 43°45' W 001°41'5 9.8
2017-Nov-15 07:30N 43°50' W 001°40'5 9.8
2017-Nov-15 07:00N 43°54' W 001°39'5 9.8
2017-Nov-15 06:30N 43°59' W 001°37'14 6.2
2017-Nov-15 04:11N 44°13' W 001°33'0 0.4
2017-Nov-15 03:43N 44°13' W 001°32'0 0.3
2017-Nov-15 03:26N 44°13' W 001°32'0 0.4
2017-Nov-15 02:48N 44°13' W 001°32'0 0.4
2017-Nov-15 02:22N 44°13' W 001°32'0 0.4
2017-Nov-15 02:00N 44°13' W 001°32'0 0.4
2017-Nov-15 01:30N 44°13' W 001°31'0 0.4
2017-Nov-15 00:47N 44°13' W 001°31'0 0.4
2017-Nov-15 00:30N 44°13' W 001°31'0 0.4
2017-Nov-14 23:52N 44°14' W 001°31'0 0.4
2017-Nov-14 23:29N 44°14' W 001°30'0 0.4
2017-Nov-14 22:58N 44°14' W 001°30'9 2.4
2017-Nov-14 19:21N 44°22' W 001°31'21 7.5
2017-Nov-14 16:30N 44°01' W 001°36'510.0
2017-Nov-14 16:00N 43°57' W 001°38'510.2
2017-Nov-14 15:30N 43°52' W 001°39'510.1
2017-Nov-14 15:00N 43°47' W 001°40'510.1
2017-Nov-14 14:30N 43°42' W 001°42'510.0
2017-Nov-14 14:00N 43°37' W 001°43'5 9.9
2017-Nov-14 13:30N 43°32' W 001°45'5 9.7
2017-Nov-14 13:00N 43°27' W 001°46'4 8.0
2017-Nov-14 12:30N 43°23' W 001°47'0 0.2
2017-Nov-14 12:00N 43°23' W 001°47'  
Track history (hours):
 
Tides and Currents Weather Stations Pressure Air Temp Water Temp Dewpoint Dewpoint Depression Visibility Wind Speed Wind Dir Waves Ship Positions

Gure Amuitz

Last reported at 2017-Nov-17 12:48 UTC. Time now 2017-Dec-14 09:48 UTC.
Position N 43°23' W 001°47'.
Warning: this ship's position is 26 days out of date.

Length 28 m.

Type: Fishing. MMSI: 224010590.

Date/timePositionNaut miles runAvg speedWind from/ knotsBaromVisibWave heightAir tempDewpointWater temp
2017-Nov-17 12:48N 43°23' W 001°47'0 0.0
2017-Nov-17 12:30N 43°23' W 001°47'0 0.3
2017-Nov-17 12:00N 43°23' W 001°48'0 0.0
2017-Nov-17 11:30N 43°23' W 001°48'0 0.0
2017-Nov-17 11:00N 43°23' W 001°48'0 0.0
2017-Nov-17 10:30N 43°23' W 001°48'0 0.0
2017-Nov-17 10:00N 43°23' W 001°48'0 0.0
2017-Nov-17 09:30N 43°23' W 001°48'0 0.0
2017-Nov-17 09:00N 43°23' W 001°48'0 0.0
2017-Nov-17 08:30N 43°23' W 001°48'0 0.0
2017-Nov-17 08:00N 43°23' W 001°48'0 0.0
2017-Nov-17 07:30N 43°23' W 001°48'0 0.0
2017-Nov-16 12:06N 43°23' W 001°48'0 0.0
2017-Nov-16 12:00N 43°23' W 001°48'0 0.0
2017-Nov-16 11:30N 43°23' W 001°48'0 0.0
2017-Nov-16 11:00N 43°23' W 001°48'0 0.0
2017-Nov-16 10:30N 43°23' W 001°48'0 0.0
2017-Nov-16 10:00N 43°23' W 001°48'0 0.0
2017-Nov-16 09:30N 43°23' W 001°48'0 0.0
2017-Nov-16 09:00N 43°23' W 001°48'0 0.0
2017-Nov-16 08:30N 43°23' W 001°48'0 0.0
2017-Nov-16 08:00N 43°23' W 001°48'0 0.0
2017-Nov-16 07:30N 43°23' W 001°48'0 0.0
2017-Nov-15 11:37N 43°23' W 001°48'0 0.0
2017-Nov-15 11:30N 43°23' W 001°48'0 0.0
2017-Nov-15 11:00N 43°23' W 001°48'0 0.0
2017-Nov-15 10:30N 43°23' W 001°48'2 3.5
2017-Nov-15 10:00N 43°25' W 001°46'510.3
2017-Nov-15 09:30N 43°30' W 001°46'510.3
2017-Nov-15 09:00N 43°35' W 001°44'510.1
2017-Nov-15 08:30N 43°40' W 001°42'510.0
2017-Nov-15 08:00N 43°45' W 001°41'5 9.8
2017-Nov-15 07:30N 43°50' W 001°40'5 9.8
2017-Nov-15 07:00N 43°54' W 001°39'5 9.8
2017-Nov-15 06:30N 43°59' W 001°37'14 6.2
2017-Nov-15 04:11N 44°13' W 001°33'0 0.4
2017-Nov-15 03:43N 44°13' W 001°32'0 0.3
2017-Nov-15 03:26N 44°13' W 001°32'0 0.4
2017-Nov-15 02:48N 44°13' W 001°32'0 0.4
2017-Nov-15 02:22N 44°13' W 001°32'0 0.4
2017-Nov-15 02:00N 44°13' W 001°32'0 0.4
2017-Nov-15 01:30N 44°13' W 001°31'0 0.4
2017-Nov-15 00:47N 44°13' W 001°31'0 0.4
2017-Nov-15 00:30N 44°13' W 001°31'0 0.4
2017-Nov-14 23:52N 44°14' W 001°31'0 0.4
2017-Nov-14 23:29N 44°14' W 001°30'0 0.4
2017-Nov-14 22:58N 44°14' W 001°30'9 2.4
2017-Nov-14 19:21N 44°22' W 001°31'21 7.5
2017-Nov-14 16:30N 44°01' W 001°36'510.0
2017-Nov-14 16:00N 43°57' W 001°38'510.2
2017-Nov-14 15:30N 43°52' W 001°39'510.1
2017-Nov-14 15:00N 43°47' W 001°40'510.1
2017-Nov-14 14:30N 43°42' W 001°42'510.0
2017-Nov-14 14:00N 43°37' W 001°43'5 9.9
2017-Nov-14 13:30N 43°32' W 001°45'5 9.7
2017-Nov-14 13:00N 43°27' W 001°46'4 8.0
2017-Nov-14 12:30N 43°23' W 001°47'0 0.2
2017-Nov-14 12:00N 43°23' W 001°47'  

Dump ship's entire track history